Time;durP1;ratioP1;P1;durP2;ratioP2;P2;SDS_P1;SDS_P2;PMS_P1;PMS_P2;Temp;Humidity;BMP_temperature;BMP_pressure;BME280_temperature;BME280_humidity;BME280_pressure;Samples;Min_cycle;Max_cycle;Signal;HPM_P1;HPM_P2
2021/07/30 04:18:04;;;;;;;12.48;7.12;;;;;;;34.61;36.46;98737.19;395043;104;1976958;-71
2021/07/30 04:19:10;;;;;;;10.09;6.28;;;;;;;34.76;35.77;98738.09;367698;107;2828938;-70
2021/07/30 04:20:26;;;;;;;10.84;6.26;;;;;;;34.94;35.54;98735.41;346517;104;2851948;-70
2021/07/30 04:21:32;;;;;;;9.73;6.88;;;;;;;34.68;35.63;98739.25;311420;106;2324983;-71
2021/07/30 04:22:56;;;;;;;13.57;6.72;;;;;;;34.49;35.89;98732.68;373496;107;1964972;-71
2021/07/30 04:24:08;;;;;;;14.50;7.73;;;;;;;34.55;36.01;98742.33;387947;104;1965887;-69
2021/07/30 04:25:13;;;;;;;10.85;7.31;;;;;;;34.91;35.68;98733.39;371967;106;1968961;-72
2021/07/30 04:26:25;;;;;;;13.57;7.95;;;;;;;34.65;35.97;98740.03;396104;104;1986008;-72
2021/07/30 04:27:31;;;;;;;11.17;8.05;;;;;;;34.43;36.15;98741.83;380930;105;1961967;-71
2021/07/30 04:28:55;;;;;;;14.13;8.78;;;;;;;34.41;36.16;98749.84;304027;105;2377042;-70
2021/07/30 04:30:07;;;;;;;11.33;8.60;;;;;;;34.49;36.08;98729.88;391086;104;2071973;-71
2021/07/30 04:31:13;;;;;;;16.26;9.06;;;;;;;34.18;36.46;98739.62;375864;107;1962090;-72
2021/07/30 04:32:18;;;;;;;12.95;8.97;;;;;;;34.20;36.51;98737.25;375410;107;1962032;-71
2021/07/30 04:33:33;;;;;;;11.87;8.09;;;;;;;34.27;36.32;98736.49;397014;104;1987068;-72
2021/07/30 04:34:45;;;;;;;13.90;8.59;;;;;;;34.19;36.35;98735.66;393053;104;1985994;-72
2021/07/30 04:35:51;;;;;;;12.59;9.03;;;;;;;33.99;36.48;98743.44;372399;106;1964003;-71
2021/07/30 04:36:56;;;;;;;13.19;8.35;;;;;;;33.99;36.56;98737.83;365281;105;2954992;-72
2021/07/30 04:38:08;;;;;;;11.54;8.37;;;;;;;34.05;36.91;98736.27;398847;103;1985871;-72
2021/07/30 04:39:13;;;;;;;13.21;9.16;;;;;;;33.99;36.80;98742.63;368561;107;1961992;-71
2021/07/30 04:40:25;;;;;;;12.40;8.75;;;;;;;33.94;36.84;98735.37;393046;104;1986038;-72
2021/07/30 04:41:30;;;;;;;13.12;9.90;;;;;;;33.80;37.06;98747.25;375500;105;1963993;-72
2021/07/30 04:43:02;;;;;;;11.12;8.79;;;;;;;33.96;36.92;98740.61;413135;98;1986007;-71
2021/07/30 04:44:08;;;;;;;12.17;9.15;;;;;;;33.78;37.10;98749.63;392353;102;1961979;-71
2021/07/30 04:45:34;;;;;;;12.03;8.43;;;;;;;33.85;36.98;98744.11;392210;102;1963070;-72
2021/07/30 04:46:48;;;;;;;13.25;8.65;;;;;;;34.10;37.03;98743.56;394551;104;1985900;-70
2021/07/30 04:47:53;;;;;;;12.81;9.02;;;;;;;34.07;36.73;98749.95;371769;107;1962053;-71
2021/07/30 04:49:06;;;;;;;13.09;9.53;;;;;;;34.19;36.79;98744.06;342415;104;2486007;-72
2021/07/30 04:50:18;;;;;;;13.94;9.93;;;;;;;34.26;36.88;98744.10;383895;106;2071967;-71
2021/07/30 04:51:24;;;;;;;10.66;8.25;;;;;;;34.23;36.74;98746.89;366206;109;1962050;-72
2021/07/30 04:52:29;;;;;;;13.56;9.19;;;;;;;34.19;36.69;98749.67;356087;109;1959669;-71
2021/07/30 04:53:35;;;;;;;11.97;9.64;;;;;;;34.17;36.70;98746.44;348220;110;1961905;-71
2021/07/30 04:54:51;;;;;;;13.33;9.69;;;;;;;34.08;36.84;98746.73;345253;116;1962018;-72
2021/07/30 04:55:57;;;;;;;12.37;9.14;;;;;;;34.20;36.82;98747.66;352395;113;1962028;-72
2021/07/30 04:57:09;;;;;;;12.80;9.69;;;;;;;34.44;36.73;98752.67;396304;104;1971973;-71
2021/07/30 04:58:15;;;;;;;16.25;9.47;;;;;;;34.43;36.54;98745.45;373531;107;1963829;-72
2021/07/30 04:59:28;;;;;;;13.15;9.07;;;;;;;34.51;36.83;98749.13;390462;106;1987074;-72
2021/07/30 05:00:35;;;;;;;12.01;9.29;;;;;;;34.38;36.67;98751.42;325884;107;2756037;-72
2021/07/30 05:01:58;;;;;;;12.09;9.01;;;;;;;34.43;36.64;98755.84;366013;109;1963059;-72
2021/07/30 05:03:10;;;;;;;10.74;8.97;;;;;;;34.58;36.70;98752.80;349339;103;2712012;-72
2021/07/30 05:04:18;;;;;;;17.18;10.38;;;;;;;34.39;36.66;98755.03;352903;108;1964016;-72
2021/07/30 05:05:34;;;;;;;13.48;10.03;;;;;;;34.45;36.68;98747.86;369843;108;1961947;-71
2021/07/30 05:06:39;;;;;;;13.63;9.66;;;;;;;34.41;36.49;98752.65;365867;109;1962007;-71
2021/07/30 05:07:52;;;;;;;18.64;9.82;;;;;;;34.56;36.71;98760.78;359053;104;2569015;-71
2021/07/30 05:09:04;;;;;;;13.22;10.18;;;;;;;34.57;36.71;98754.00;391840;104;2072953;-72
2021/07/30 05:10:19;;;;;;;13.13;9.98;;;;;;;34.42;36.72;98757.85;375187;107;1961933;-72
2021/07/30 05:11:24;;;;;;;13.48;9.81;;;;;;;34.28;36.91;98750.13;369928;108;1961988;-72
2021/07/30 05:12:37;;;;;;;15.49;10.21;;;;;;;34.42;36.99;98746.64;387897;106;1986832;-72
2021/07/30 05:13:43;;;;;;;14.52;10.12;;;;;;;34.38;36.85;98754.23;355808;111;2948037;-72
2021/07/30 05:14:56;;;;;;;13.11;10.22;;;;;;;34.65;36.73;98754.06;388477;106;1962043;-70
2021/07/30 05:16:12;;;;;;;13.97;9.91;;;;;;;34.50;36.92;98747.50;372311;107;1969036;-72
2021/07/30 05:17:17;;;;;;;13.83;10.28;;;;;;;34.60;36.82;98755.22;372347;107;1962043;-72
2021/07/30 05:18:29;;;;;;;16.32;9.80;;;;;;;34.86;36.67;98744.98;402851;101;1986048;-71
2021/07/30 05:19:35;;;;;;;15.52;10.89;;;;;;;34.78;36.47;98761.77;384441;105;1960866;-72
2021/07/30 05:20:41;;;;;;;12.61;10.11;;;;;;;34.80;36.40;98756.57;372176;105;2911845;-72
2021/07/30 05:21:53;;;;;;;15.61;10.09;;;;;;;34.94;36.47;98755.05;388668;106;1960921;-72
2021/07/30 05:22:58;;;;;;;13.36;10.12;;;;;;;34.72;36.47;98752.11;363993;111;1969002;-71
2021/07/30 05:24:12;;;;;;;14.94;10.59;;;;;;;34.92;36.41;98760.24;374348;104;1990882;-71
2021/07/30 05:25:18;;;;;;;13.85;10.22;;;;;;;34.91;36.29;98758.64;341850;105;2064855;-71
2021/07/30 05:26:23;;;;;;;14.29;10.48;;;;;;;34.88;36.36;98765.84;369103;105;1960922;-71
2021/07/30 05:27:28;;;;;;;16.11;10.39;;;;;;;34.98;36.27;98755.86;363341;105;1960953;-72
2021/07/30 05:28:41;;;;;;;15.02;10.84;;;;;;;35.10;36.48;98754.77;390527;104;2073031;-72
2021/07/30 05:29:47;;;;;;;12.89;10.26;;;;;;;35.13;36.08;98763.19;356403;109;1959755;-72
2021/07/30 05:30:54;;;;;;;14.66;10.42;;;;;;;35.20;35.95;98765.25;351417;113;1961885;-72
2021/07/30 05:32:09;;;;;;;17.28;11.30;;;;;;;35.30;35.82;98760.86;402183;104;1986909;-71
2021/07/30 05:33:14;;;;;;;14.69;11.30;;;;;;;35.16;36.00;98762.41;362776;105;2864009;-72
2021/07/30 05:34:26;;;;;;;17.01;11.87;;;;;;;35.36;36.03;98759.30;400691;103;1985969;-72
2021/07/30 05:35:34;;;;;;;15.33;11.70;;;;;;;35.26;35.84;98766.47;369327;108;1963041;-72
2021/07/30 05:36:42;;;;;;;15.77;12.24;;;;;;;34.99;36.16;98763.09;367931;107;2869034;-72
2021/07/30 05:37:47;;;;;;;19.80;11.52;;;;;;;35.08;36.06;98771.98;370719;107;1966008;-72
2021/07/30 05:38:59;;;;;;;15.24;10.96;;;;;;;35.31;35.80;98770.91;394001;104;1986941;-71
2021/07/30 05:40:06;;;;;;;16.62;12.27;;;;;;;35.23;35.64;98764.45;371723;109;1962036;-72
2021/07/30 05:41:18;;;;;;;16.61;13.11;;;;;;;35.26;35.90;98771.29;382714;104;1986028;-71
2021/07/30 05:42:24;;;;;;;15.61;11.77;;;;;;;35.05;35.98;98769.94;351960;107;1963061;-72
2021/07/30 05:43:32;;;;;;;16.79;11.80;;;;;;;35.11;35.96;98771.20;348054;105;1978045;-72
2021/07/30 05:44:44;;;;;;;17.14;12.03;;;;;;;35.27;36.13;98770.88;370633;104;2557049;-71
2021/07/30 05:45:50;;;;;;;17.48;12.59;;;;;;;35.18;36.13;98771.25;318504;105;2274002;-72
2021/07/30 05:47:03;;;;;;;15.98;12.68;;;;;;;35.41;35.81;98775.78;389783;104;2074096;-70
2021/07/30 05:48:09;;;;;;;23.54;12.57;;;;;;;35.37;35.71;98777.75;369981;107;1969984;-72
2021/07/30 05:49:34;;;;;;;15.17;11.80;;;;;;;35.32;35.77;98775.31;366388;107;1962084;-73
2021/07/30 05:50:53;;;;;;;15.77;12.20;;;;;;;35.46;35.75;98769.75;395905;104;1985934;-71
2021/07/30 05:51:58;;;;;;;17.45;12.38;;;;;;;35.53;35.33;98778.21;379609;107;1961963;-72
2021/07/30 05:53:03;;;;;;;14.70;10.85;;;;;;;35.37;35.76;98780.56;376158;107;1961868;-72
2021/07/30 05:54:17;;;;;;;15.74;11.77;;;;;;;35.65;35.54;98777.09;354815;104;2702028;-71
2021/07/30 05:55:30;;;;;;;16.22;12.04;;;;;;;35.60;35.45;98775.47;392936;104;1961957;-72
2021/07/30 05:56:35;;;;;;;13.91;11.16;;;;;;;35.58;35.41;98777.06;378563;107;1969993;-72
2021/07/30 05:57:48;;;;;;;16.94;12.23;;;;;;;35.77;35.39;98778.72;386992;106;1987994;-71
2021/07/30 05:58:53;;;;;;;14.11;10.76;;;;;;;35.76;35.26;98775.11;369118;106;1961936;-72
2021/07/30 05:59:58;;;;;;;12.81;10.77;;;;;;;35.67;35.18;98774.67;361859;112;1963071;-71
2021/07/30 06:01:12;;;;;;;15.98;12.25;;;;;;;35.65;35.28;98763.05;391743;104;2072871;-71
2021/07/30 06:02:18;;;;;;;14.96;11.79;;;;;;;35.49;35.40;98771.80;375045;106;1969983;-71
2021/07/30 06:03:31;;;;;;;16.78;11.79;;;;;;;35.70;35.47;98773.08;370218;108;2838037;-71
2021/07/30 06:04:37;;;;;;;13.89;11.70;;;;;;;35.62;35.29;98772.25;335001;109;2021990;-72
2021/07/30 06:06:02;;;;;;;16.76;11.93;;;;;;;35.67;35.18;98774.67;365762;109;1961903;-72
2021/07/30 06:07:14;;;;;;;14.59;11.58;;;;;;;35.92;34.87;98771.94;392606;104;1986954;-72
2021/07/30 06:08:30;;;;;;;16.59;12.86;;;;;;;35.80;35.00;98772.30;369480;107;1962021;-72
2021/07/30 06:09:35;;;;;;;14.56;11.91;;;;;;;35.91;34.87;98763.90;354581;114;1961964;-72
2021/07/30 06:10:47;;;;;;;15.52;11.47;;;;;;;36.27;34.97;98767.59;400394;104;1985932;-72
2021/07/30 06:11:53;;;;;;;16.43;11.92;;;;;;;36.17;34.73;98771.20;383590;105;1964075;-73
2021/07/30 06:13:05;;;;;;;17.54;12.26;;;;;;;36.31;34.58;98772.03;387560;104;1986910;-72
2021/07/30 06:14:17;;;;;;;15.48;11.32;;;;;;;36.41;34.69;98767.59;398982;104;1986059;-73
2021/07/30 06:15:40;;;;;;;14.41;11.96;;;;;;;36.28;34.52;98766.37;322555;107;2495952;-72
2021/07/30 06:16:52;;;;;;;16.62;12.31;;;;;;;36.35;34.36;98765.59;385335;106;2072096;-72
2021/07/30 06:17:59;;;;;;;14.88;11.99;;;;;;;36.07;34.12;98761.54;367027;109;1963894;-72
2021/07/30 06:19:23;;;;;;;14.76;10.01;;;;;;;35.97;34.16;98762.33;361946;111;1961978;-72
2021/07/30 06:20:35;;;;;;;12.06;9.79;;;;;;;36.31;33.85;98757.97;390412;106;1985808;-73
2021/07/30 06:21:41;;;;;;;15.52;11.07;;;;;;;36.25;33.76;98762.36;365084;105;1960864;-73
2021/07/30 06:22:47;;;;;;;13.97;10.70;;;;;;;36.07;34.15;98759.56;347203;109;2855089;-72
2021/07/30 06:23:52;;;;;;;15.37;10.71;;;;;;;36.29;33.81;98763.18;352110;112;2835806;-72
2021/07/30 06:25:06;;;;;;;13.33;10.68;;;;;;;36.35;33.71;98762.78;388416;106;2079809;-73
2021/07/30 06:26:11;;;;;;;15.98;11.79;;;;;;;36.22;33.55;98759.56;365622;108;1960641;-73
2021/07/30 06:27:23;;;;;;;12.96;10.77;;;;;;;36.41;33.56;98761.96;387659;104;2945766;-71
2021/07/30 06:28:29;;;;;;;14.42;10.70;;;;;;;36.33;33.30;98757.55;372691;107;1960788;-72
2021/07/30 06:29:41;;;;;;;14.46;11.69;;;;;;;36.47;33.39;98751.94;390238;102;2069864;-73
2021/07/30 06:30:48;;;;;;;13.09;10.26;;;;;;;36.29;33.77;98759.57;383130;105;1967732;-73
2021/07/30 06:32:00;;;;;;;18.73;12.88;;;;;;;36.45;33.77;98759.17;390471;101;2070811;-73
2021/07/30 06:33:10;;;;;;;15.83;11.80;;;;;;;36.38;33.63;98757.14;379694;103;1967846;-73
2021/07/30 06:34:34;;;;;;;13.03;10.92;;;;;;;36.34;33.46;98755.56;377843;105;1960791;-72
2021/07/30 06:35:50;;;;;;;13.82;9.66;;;;;;;36.37;33.48;98757.56;393260;101;1960812;-73
2021/07/30 06:36:56;;;;;;;12.82;10.53;;;;;;;36.17;33.54;98766.37;376428;106;1967754;-72
2021/07/30 06:38:02;;;;;;;15.11;11.44;;;;;;;35.98;33.88;98761.11;375986;105;1960801;-72
2021/07/30 06:39:08;;;;;;;15.38;11.08;;;;;;;36.03;33.89;98758.70;370909;107;1961865;-72
2021/07/30 06:40:20;;;;;;;15.42;11.35;;;;;;;36.19;33.71;98749.91;397445;102;1965549;-72
2021/07/30 06:41:25;;;;;;;14.16;10.66;;;;;;;35.90;34.21;98754.67;364246;106;1960835;-72
2021/07/30 06:42:38;;;;;;;13.81;10.94;;;;;;;36.09;34.13;98754.31;373920;105;2071675;-72
2021/07/30 06:43:44;;;;;;;15.82;10.39;;;;;;;36.17;33.81;98749.51;356559;113;1960835;-72
2021/07/30 06:45:07;;;;;;;16.91;10.07;;;;;;;36.16;33.87;98747.11;351957;111;1960753;-73
2021/07/30 06:46:20;;;;;;;16.17;11.39;;;;;;;36.19;33.64;98749.12;401341;103;2070902;-73
2021/07/30 06:47:25;;;;;;;15.91;11.28;;;;;;;36.15;33.77;98753.92;381232;105;1962040;-73
2021/07/30 06:48:49;;;;;;;16.98;11.67;;;;;;;36.12;33.66;98749.91;363295;104;2623973;-71
2021/07/30 06:49:54;;;;;;;11.67;10.04;;;;;;;36.06;33.90;98746.69;376440;107;1961984;-73
2021/07/30 06:51:18;;;;;;;15.28;10.39;;;;;;;36.27;33.59;98745.90;365884;111;1962031;-73
2021/07/30 06:52:33;;;;;;;16.73;11.21;;;;;;;36.47;33.61;98746.31;396016;104;1963056;-72
2021/07/30 06:53:40;;;;;;;13.30;10.36;;;;;;;36.42;33.62;98745.91;317882;107;2263984;-73
2021/07/30 06:54:45;;;;;;;13.80;11.37;;;;;;;36.48;33.49;98742.28;364014;107;1963873;-73
2021/07/30 06:55:51;;;;;;;17.48;12.07;;;;;;;36.53;33.35;98741.88;352084;107;1961904;-72
2021/07/30 06:57:04;;;;;;;14.76;11.11;;;;;;;36.62;33.45;98741.48;374308;108;2072927;-73
2021/07/30 06:58:09;;;;;;;11.98;9.87;;;;;;;36.42;33.19;98741.09;354419;113;1961843;-72
2021/07/30 06:59:15;;;;;;;12.87;9.44;;;;;;;36.54;33.16;98740.69;357280;110;1963994;-72
2021/07/30 07:00:20;;;;;;;11.29;8.81;;;;;;;36.47;32.63;98751.14;360806;112;1962999;-72
2021/07/30 07:01:25;;;;;;;13.54;8.78;;;;;;;36.72;31.95;98742.69;357513;112;1964011;-72
2021/07/30 07:02:37;;;;;;;14.41;9.17;;;;;;;36.71;32.01;98744.70;372710;108;2853969;-71
2021/07/30 07:03:49;;;;;;;12.80;8.43;;;;;;;36.68;31.60;98742.70;396075;104;1985948;-72
2021/07/30 07:04:55;;;;;;;12.06;8.61;;;;;;;36.65;31.82;98742.69;374768;107;1962078;-72
2021/07/30 07:06:00;;;;;;;11.51;9.08;;;;;;;36.73;31.94;98745.11;379589;105;1962001;-72
2021/07/30 07:07:13;;;;;;;12.88;9.67;;;;;;;36.90;31.62;98739.84;400498;104;1985872;-73
2021/07/30 07:08:18;;;;;;;13.42;9.45;;;;;;;36.82;31.84;98743.88;372196;105;1962062;-72
2021/07/30 07:09:30;;;;;;;11.41;8.18;;;;;;;36.97;31.47;98740.62;396458;104;1986981;-72
2021/07/30 07:10:36;;;;;;;13.33;8.05;;;;;;;36.97;31.16;98746.26;370171;107;2862028;-72
2021/07/30 07:12:02;;;;;;;10.73;7.24;;;;;;;36.78;31.17;98743.87;378394;107;1963011;-73
2021/07/30 07:13:08;;;;;;;11.11;7.67;;;;;;;36.67;30.52;98743.09;316489;107;2262066;-73
2021/07/30 07:14:20;;;;;;;11.06;7.69;;;;;;;36.98;30.17;98741.42;391575;104;2080993;-74
2021/07/30 07:15:25;;;;;;;10.83;8.23;;;;;;;36.98;30.28;98739.41;377477;107;1962053;-73
2021/07/30 07:16:31;;;;;;;11.82;8.24;;;;;;;37.12;30.32;98743.41;376554;106;1962950;-73
2021/07/30 07:17:36;;;;;;;11.97;8.34;;;;;;;37.20;30.36;98745.00;373259;107;1962060;-72
2021/07/30 07:18:42;;;;;;;11.24;8.41;;;;;;;37.06;30.12;98745.85;371263;108;1961835;-73
2021/07/30 07:19:54;;;;;;;12.66;9.03;;;;;;;37.16;30.47;98747.03;392324;103;1990860;-72
2021/07/30 07:21:00;;;;;;;11.48;8.99;;;;;;;37.15;30.58;98751.05;372279;107;1962845;-73
2021/07/30 07:22:06;;;;;;;12.06;8.79;;;;;;;37.05;30.62;98743.43;364052;108;2901998;-72
2021/07/30 07:23:25;;;;;;;13.04;8.63;;;;;;;37.19;30.62;98749.03;330273;108;2821868;-73
2021/07/30 07:25:12;;;;;;;10.87;8.08;;;;;;;37.35;29.94;98752.18;340591;108;2833946;-76
2021/07/30 07:27:09;;;;;;;11.89;7.65;;;;;;;37.22;29.87;98762.29;366166;109;1964018;-75
2021/07/30 07:29:06;;;;;;;10.04;7.74;;;;;;;36.95;29.63;98759.92;360561;111;1961916;-75
2021/07/30 07:30:25;;;;;;;9.99;7.52;;;;;;;37.04;29.59;98759.52;336884;110;1972891;-75
2021/07/30 07:31:37;;;;;;;9.84;7.60;;;;;;;37.37;29.05;98763.85;390289;106;1960852;-75
2021/07/30 07:32:46;;;;;;;10.86;7.98;;;;;;;37.07;29.24;98755.09;321984;107;2828948;-77
2021/07/30 07:33:58;;;;;;;10.41;7.55;;;;;;;37.33;29.04;98748.96;396209;103;1970946;-76
2021/07/30 07:35:05;;;;;;;12.90;7.76;;;;;;;37.36;28.95;98755.80;374468;105;1960968;-76
2021/07/30 07:36:29;;;;;;;11.56;8.21;;;;;;;37.58;28.96;98757.34;375422;107;1960831;-76
2021/07/30 07:37:35;;;;;;;11.83;7.65;;;;;;;37.67;28.89;98768.16;376022;105;1960933;-76
2021/07/30 07:38:50;;;;;;;11.58;7.67;;;;;;;37.81;28.65;98765.25;399424;104;1986896;-77
2021/07/30 07:39:56;;;;;;;11.23;7.22;;;;;;;37.65;28.62;98767.77;378623;105;1961959;-76
2021/07/30 07:41:08;;;;;;;11.23;8.22;;;;;;;37.77;28.84;98756.03;366765;103;2853250;-76
2021/07/30 07:42:13;;;;;;;11.36;7.63;;;;;;;37.80;28.71;98755.20;356543;108;2961030;-75
2021/07/30 07:43:19;;;;;;;10.79;7.42;;;;;;;37.91;28.67;98760.77;372531;106;1962068;-76
2021/07/30 07:44:26;;;;;;;10.72;7.62;;;;;;;37.99;28.69;98759.53;329368;106;2622964;-77
2021/07/30 07:45:44;;;;;;;11.12;7.81;;;;;;;38.07;28.36;98765.93;394374;104;1963154;-76
2021/07/30 07:46:49;;;;;;;12.57;7.72;;;;;;;38.19;28.49;98767.48;373642;107;1965967;-75
2021/07/30 07:48:03;;;;;;;11.38;6.83;;;;;;;38.24;28.29;98762.19;354025;104;2781964;-76
2021/07/30 07:49:08;;;;;;;10.89;7.31;;;;;;;38.17;28.12;98767.08;371581;105;1962011;-75
2021/07/30 07:50:32;;;;;;;10.78;7.69;;;;;;;38.12;28.13;98759.86;376505;108;1961985;-75
2021/07/30 07:51:44;;;;;;;10.34;7.74;;;;;;;38.15;28.31;98761.84;384490;106;2072026;-75
2021/07/30 07:52:52;;;;;;;9.88;7.11;;;;;;;37.98;28.43;98765.61;365644;108;1962129;-76
2021/07/30 07:54:04;;;;;;;12.39;7.29;;;;;;;37.68;28.85;98775.39;391939;105;1986078;-76
2021/07/30 07:55:11;;;;;;;9.29;6.91;;;;;;;37.49;28.95;98776.66;321306;107;2852016;-77
2021/07/30 07:56:36;;;;;;;11.37;7.22;;;;;;;37.55;28.81;98775.08;368484;107;2921942;-76
2021/07/30 07:57:43;;;;;;;9.91;6.96;;;;;;;37.59;28.17;98775.05;322239;105;2561881;-76
2021/07/30 07:58:56;;;;;;;10.77;7.29;;;;;;;37.93;28.27;98777.28;394920;104;1985965;-74
2021/07/30 08:00:01;;;;;;;9.63;6.65;;;;;;;37.67;28.28;98778.64;372347;106;1961983;-75
2021/07/30 08:01:14;;;;;;;11.49;7.02;;;;;;;37.67;28.48;98773.00;374975;107;1961976;-75
2021/07/30 08:02:20;;;;;;;8.58;6.18;;;;;;;37.66;28.01;98774.20;371382;109;1964920;-74
2021/07/30 08:03:34;;;;;;;11.12;6.73;;;;;;;37.79;28.04;98773.34;365539;101;2717023;-75
2021/07/30 08:04:40;;;;;;;8.07;6.18;;;;;;;37.68;27.78;98777.41;359905;105;1961965;-75
2021/07/30 08:05:45;;;;;;;10.39;6.36;;;;;;;37.67;27.01;98775.82;349621;105;2053936;-75
2021/07/30 08:07:00;;;;;;;10.98;6.82;;;;;;;37.53;27.82;98776.70;393197;104;2074974;-75
2021/07/30 08:08:06;;;;;;;12.85;6.28;;;;;;;37.45;27.68;98775.89;313688;107;2576054;-75
2021/07/30 08:09:18;;;;;;;11.06;6.58;;;;;;;37.44;27.89;98776.29;395625;103;2073055;-75
2021/07/30 08:10:24;;;;;;;12.81;6.63;;;;;;;37.67;27.26;98775.82;371810;107;1961981;-74
2021/07/30 08:11:52;;;;;;;10.48;6.22;;;;;;;37.47;27.36;98790.35;329711;109;2784657;31
2021/07/30 08:12:57;;;;;;;11.57;6.35;;;;;;;37.31;27.68;98782.36;354123;112;1962031;-75
2021/07/30 08:14:09;;;;;;;9.47;6.82;;;;;;;37.58;27.60;98779.89;386601;106;2072013;-75
2021/07/30 08:15:15;;;;;;;9.35;5.68;;;;;;;37.37;27.72;98780.75;357493;109;1961980;-75
2021/07/30 08:16:25;;;;;;;8.64;6.32;;;;;;;37.36;27.28;98773.49;342910;111;1990969;-75
2021/07/30 08:17:38;;;;;;;11.18;7.14;;;;;;;37.70;27.21;98774.99;393284;106;1986024;-74
2021/07/30 08:18:43;;;;;;;8.57;5.94;;;;;;;37.86;27.05;98772.48;368343;109;1964847;-75
2021/07/30 08:19:51;;;;;;;10.44;5.87;;;;;;;37.92;26.54;98787.73;371321;109;1961969;-75
2021/07/30 08:21:03;;;;;;;8.87;5.48;;;;;;;38.28;26.07;98777.05;374581;106;1986986;-76
2021/07/30 08:22:08;;;;;;;9.33;5.93;;;;;;;38.08;26.03;98778.80;354263;110;1962036;-75
2021/07/30 08:23:20;;;;;;;10.43;6.48;;;;;;;38.24;26.27;98775.47;374253;109;2072002;-75
2021/07/30 08:24:26;;;;;;;7.51;5.39;;;;;;;38.14;26.14;98770.73;357400;113;1963018;-76
2021/07/30 08:25:49;;;;;;;9.52;5.43;;;;;;;37.90;25.89;98772.48;327221;115;2035974;-76
2021/07/30 08:27:07;;;;;;;8.44;5.41;;;;;;;37.93;25.77;98786.54;398609;103;2072981;-76
2021/07/30 08:28:20;;;;;;;9.04;5.56;;;;;;;38.11;26.02;98775.19;389146;106;1986368;-75
2021/07/30 08:29:25;;;;;;;8.09;5.86;;;;;;;38.12;26.13;98776.78;359371;109;2899008;-75
2021/07/30 08:30:37;;;;;;;9.93;6.24;;;;;;;38.10;26.42;98769.94;387111;106;1986016;-75
2021/07/30 08:31:42;;;;;;;10.29;6.24;;;;;;;38.06;26.49;98784.08;356190;109;1962049;-74
2021/07/30 08:33:06;;;;;;;9.29;6.03;;;;;;;37.99;26.35;98781.30;361590;112;1962990;-75
2021/07/30 08:34:18;;;;;;;8.09;5.40;;;;;;;38.26;25.90;98784.33;326829;104;2445996;-75
2021/07/30 08:35:24;;;;;;;7.94;5.08;;;;;;;38.10;25.10;98782.02;330492;107;2198000;-76
2021/07/30 08:36:30;;;;;;;7.88;5.02;;;;;;;38.03;25.23;98773.63;346845;107;2029983;-76
2021/07/30 08:37:42;;;;;;;11.72;6.36;;;;;;;37.86;25.43;98772.48;401056;104;1985835;-74
2021/07/30 08:38:47;;;;;;;8.12;5.11;;;;;;;37.67;25.09;98781.45;373354;107;1962000;-75
2021/07/30 08:39:59;;;;;;;8.48;5.52;;;;;;;37.80;25.20;98779.77;398723;104;1987003;-76
2021/07/30 08:41:05;;;;;;;8.77;5.24;;;;;;;37.87;25.15;98785.38;373097;107;1963021;-75
2021/07/30 08:42:36;;;;;;;7.86;5.38;;;;;;;37.88;24.56;98753.14;371609;107;1961961;-76
2021/07/30 08:43:52;;;;;;;7.98;4.74;;;;;;;38.41;24.97;98779.38;378868;103;1987059;-76
2021/07/30 08:44:59;;;;;;;7.88;5.11;;;;;;;38.11;24.64;98785.63;339733;108;2693018;-76
2021/07/30 08:46:05;;;;;;;8.57;5.42;;;;;;;38.06;24.78;98781.26;372851;107;1962011;-76
2021/07/30 08:47:22;;;;;;;8.12;5.58;;;;;;;38.45;24.74;98778.17;395649;106;1987053;-76
2021/07/30 08:48:33;;;;;;;11.64;5.59;;;;;;;38.40;24.80;98774.94;366036;109;1962018;-76
2021/07/30 08:49:46;;;;;;;8.56;5.18;;;;;;;38.58;24.84;98781.27;351194;106;2741056;-76
2021/07/30 08:50:53;;;;;;;8.15;4.52;;;;;;;38.04;24.68;98778.05;343506;108;2025888;-75
2021/07/30 08:52:19;;;;;;;10.92;4.38;;;;;;;38.22;24.70;98786.38;352612;109;1965034;-75
2021/07/30 08:53:33;;;;;;;8.61;4.21;;;;;;;38.23;23.22;98790.80;321190;108;2510028;-75
2021/07/30 08:54:40;;;;;;;7.52;4.40;;;;;;;37.94;23.60;98790.16;317959;110;2234096;-75
2021/07/30 08:55:45;;;;;;;5.68;4.15;;;;;;;38.14;23.77;98791.27;364119;111;1962020;-75
2021/07/30 08:56:50;;;;;;;7.05;4.13;;;;;;;38.09;23.71;98783.25;363103;111;1961992;-75
2021/07/30 08:58:04;;;;;;;7.49;4.33;;;;;;;38.36;23.76;98774.98;397876;101;1986054;-75
2021/07/30 08:59:10;;;;;;;7.23;4.24;;;;;;;38.22;23.72;98783.56;327463;107;2617987;-75
2021/07/30 09:00:24;;;;;;;6.19;3.77;;;;;;;38.14;23.71;98777.17;387273;106;1971957;-75
2021/07/30 09:01:29;;;;;;;6.58;3.68;;;;;;;37.70;23.90;98784.24;369938;109;1961998;-75
2021/07/30 09:02:56;;;;;;;4.72;3.27;;;;;;;37.66;23.49;98782.65;366399;109;1961975;-76
2021/07/30 09:04:12;;;;;;;7.05;4.06;;;;;;;37.61;23.74;98772.63;376164;106;1987079;-75
2021/07/30 09:05:32;;;;;;;10.06;4.48;;;;;;;37.75;23.35;98778.18;382583;104;1985979;-76
2021/07/30 09:06:56;;;;;;;8.49;3.88;;;;;;;37.72;23.65;98781.03;377270;106;1961886;-76
2021/07/30 09:08:05;;;;;;;6.35;4.08;;;;;;;38.05;23.21;98774.82;376942;107;1962091;-75
2021/07/30 09:09:17;;;;;;;7.96;3.59;;;;;;;38.35;23.38;98773.39;392595;104;1987049;-76
2021/07/30 09:10:29;;;;;;;7.79;4.23;;;;;;;38.20;22.83;98778.33;375682;107;1960814;-74
2021/07/30 09:11:41;;;;;;;6.75;3.56;;;;;;;37.87;22.97;98774.10;328578;108;2590007;-75
2021/07/30 09:13:18;;;;;;;7.34;3.71;;;;;;;38.04;23.05;98775.22;319073;112;2124036;-77
2021/07/30 09:14:44;;;;;;;7.20;3.87;;;;;;;38.20;23.07;98780.34;323598;115;2858071;-76
2021/07/30 09:16:07;;;;;;;6.00;3.21;;;;;;;38.31;22.81;98775.42;390545;105;1987843;-75
2021/07/30 09:17:13;;;;;;;5.31;3.47;;;;;;;38.48;22.39;98773.72;363967;110;1961998;-75
2021/07/30 09:18:33;;;;;;;6.13;3.59;;;;;;;38.66;22.15;98770.71;356854;110;1961999;-75
2021/07/30 09:20:01;;;;;;;7.27;3.53;;;;;;;38.66;22.19;98763.07;356822;112;1961935;-76
2021/07/30 09:21:30;;;;;;;7.61;3.64;;;;;;;38.80;22.29;98761.33;327608;118;1962014;-75
2021/07/30 09:22:50;;;;;;;7.44;3.66;;;;;;;38.71;21.92;98768.23;394735;103;1987010;-76
2021/07/30 09:24:02;;;;;;;4.90;3.17;;;;;;;38.50;22.00;98782.55;369275;110;1960917;-75
2021/07/30 09:25:33;;;;;;;5.96;3.51;;;;;;;38.42;21.96;98778.16;393119;104;1985981;-75
2021/07/30 09:26:53;;;;;;;6.05;3.33;;;;;;;38.41;21.68;98768.89;326850;106;2511003;-74
2021/07/30 09:28:18;;;;;;;5.76;3.52;;;;;;;38.40;21.93;98772.12;365865;108;1961987;-76
2021/07/30 09:29:32;;;;;;;6.60;3.36;;;;;;;38.69;21.96;98767.05;390232;103;1986046;-76
2021/07/30 09:30:38;;;;;;;10.86;3.27;;;;;;;38.55;21.68;98772.84;374302;106;1962016;-76
2021/07/30 09:32:05;;;;;;;5.05;2.62;;;;;;;38.74;21.20;98762.98;360651;109;1962065;-76
2021/07/30 09:33:14;;;;;;;4.69;3.01;;;;;;;38.65;21.05;98783.23;370063;106;1960953;-76
2021/07/30 09:34:38;;;;;;;6.34;2.62;;;;;;;38.91;20.18;98768.48;394485;104;1985985;-75
2021/07/30 09:35:57;;;;;;;5.46;2.51;;;;;;;38.74;20.61;98780.72;366796;106;1960805;-75
2021/07/30 09:37:12;;;;;;;5.40;3.46;;;;;;;38.30;20.96;98768.19;356716;112;1962056;-76
2021/07/30 09:38:29;;;;;;;6.98;3.19;;;;;;;38.09;21.02;98769.15;384947;106;1987039;-75
2021/07/30 09:39:53;;;;;;;4.66;3.06;;;;;;;38.34;21.33;98765.33;395685;103;1971863;-76
2021/07/30 09:41:18;;;;;;;7.33;3.12;;;;;;;38.20;21.44;98780.34;362487;108;1962954;-76
2021/07/30 09:42:35;;;;;;;7.32;3.43;;;;;;;37.90;20.90;98778.11;371728;107;1964061;-76
2021/07/30 09:43:47;;;;;;;7.02;3.51;;;;;;;38.32;21.73;98762.94;355601;101;2283083;-77
2021/07/30 09:45:07;;;;;;;6.77;3.14;;;;;;;38.38;21.69;98771.75;341406;105;2156007;-77